Time;durP1;ratioP1;P1;durP2;ratioP2;P2;SDS_P1;SDS_P2;PMS_P1;PMS_P2;Temp;Humidity;BMP_temperature;BMP_pressure;BME280_temperature;BME280_humidity;BME280_pressure;Samples;Min_cycle;Max_cycle;Signal;HPM_P1;HPM_P2
2021/08/17 00:00:03;;;;;;;;;24.25;19.00;;;;;18.59;53.03;101900.59;5073923;28;45304;-88
2021/08/17 00:02:29;;;;;;;;;26.75;20.50;;;;;18.47;53.08;101878.38;5076005;28;45321;-88
2021/08/17 00:04:54;;;;;;;;;23.50;20.75;;;;;18.44;52.97;101882.81;5068760;28;45373;-94
2021/08/17 00:07:21;;;;;;;;;24.50;19.50;;;;;18.47;52.92;101891.69;5063513;28;45593;-86
2021/08/17 00:09:46;;;;;;;;;29.00;22.00;;;;;18.48;53.12;101897.91;5065116;28;44787;-86
2021/08/17 00:12:12;;;;;;;;;22.25;21.00;;;;;18.48;52.90;101900.56;5070748;28;45440;-93
2021/08/17 00:14:37;;;;;;;;;23.00;19.25;;;;;18.45;53.23;101898.78;5071717;28;45417;-85
2021/08/17 00:17:03;;;;;;;;;23.00;22.33;;;;;18.33;53.40;101883.66;5068781;28;45408;-90
2021/08/17 00:19:28;;;;;;;;;20.00;16.00;;;;;18.31;53.41;101880.09;5067253;28;45382;-86
2021/08/17 00:21:54;;;;;;;;;24.67;21.00;;;;;18.34;53.33;101890.75;5063091;28;46974;-90
2021/08/17 00:24:19;;;;;;;;;20.67;19.67;;;;;18.34;53.59;101896.06;5063611;28;45341;-86
2021/08/17 00:26:45;;;;;;;;;20.00;18.00;;;;;18.33;53.93;101894.31;5068105;28;45485;-87
2021/08/17 00:29:10;;;;;;;;;26.75;19.25;;;;;18.30;53.79;101888.97;5066825;28;45284;-87
2021/08/17 00:31:35;;;;;;;;;25.50;23.75;;;;;18.33;54.14;101893.41;5067237;28;45341;-85
2021/08/17 00:34:01;;;;;;;;;20.00;19.00;;;;;18.27;53.92;101881.84;5065843;28;44680;-87
2021/08/17 00:36:30;;;;;;;;;19.33;18.00;;;;;18.23;53.95;101873.88;5062314;28;45272;-87
2021/08/17 00:38:55;;;;;;;;;24.00;20.00;;;;;18.16;54.15;101871.16;5061085;28;45422;-91
2021/08/17 00:41:21;;;;;;;;;22.00;19.33;;;;;18.24;54.52;101888.94;5061558;28;45955;-92
2021/08/17 00:43:46;;;;;;;;;22.00;17.67;;;;;18.22;53.99;101885.38;5061161;28;45356;-92
2021/08/17 00:46:12;;;;;;;;;17.67;15.00;;;;;18.22;54.33;101878.28;5062231;28;45354;-88
2021/08/17 00:48:39;;;;;;;;;19.33;16.00;;;;;18.11;54.13;101867.56;5061884;28;45364;-88
2021/08/17 00:51:08;;;;;;;;;21.33;18.00;;;;;18.19;54.56;101890.72;5062423;28;45990;-87
2021/08/17 00:53:35;;;;;;;;;20.00;17.67;;;;;18.09;54.59;101874.66;5062199;28;45331;-90
2021/08/17 00:56:01;;;;;;;;;22.67;15.00;;;;;18.15;54.71;101890.66;5065372;28;45251;-86
2021/08/17 00:58:28;;;;;;;;;17.50;17.50;;;;;18.12;54.41;101879.13;5064818;28;45353;-88
2021/08/17 01:00:56;;;;;;;;;21.00;17.00;;;;;18.12;54.71;101888.00;5067166;28;46969;-88
2021/08/17 01:03:21;;;;;;;;;24.33;17.33;;;;;18.08;54.74;101875.56;5070385;28;45293;-87
2021/08/17 01:05:47;;;;;;;;;21.33;17.00;;;;;18.02;54.63;101875.53;5069411;28;45856;-88
2021/08/17 01:08:12;;;;;;;;;21.00;17.67;;;;;17.97;55.05;101864.88;5071231;28;44857;-87
2021/08/17 01:10:38;;;;;;;;;18.00;14.00;;;;;18.03;54.99;101875.53;5071397;28;45607;-88
2021/08/17 01:13:03;;;;;;;;;17.00;14.33;;;;;17.97;54.96;101866.63;5070838;28;45177;-88
2021/08/17 01:15:29;;;;;;;;;17.67;17.67;;;;;17.97;55.13;101863.97;5067280;28;45155;-88
2021/08/17 01:17:54;;;;;;;;;20.33;18.00;;;;;18.03;55.03;101880.84;5065680;28;45352;-87
2021/08/17 01:20:20;;;;;;;;;19.33;15.67;;;;;17.97;55.04;101864.88;5061946;28;45326;-87
2021/08/17 01:22:47;;;;;;;;;19.00;16.33;;;;;17.98;55.05;101871.09;5060811;28;45363;-90
2021/08/17 01:25:13;;;;;;;;;17.00;16.00;;;;;18.00;55.02;101879.97;5061962;28;45277;-86
2021/08/17 01:27:40;;;;;;;;;23.00;17.33;;;;;18.00;55.07;101885.28;5060235;28;45412;-88
2021/08/17 01:30:10;;;;;;;;;17.33;14.67;;;;;17.86;55.16;101862.16;5060730;28;46283;-90
2021/08/17 01:32:35;;;;;;;;;20.33;18.67;;;;;17.97;55.13;101885.25;5060523;28;45540;-92
2021/08/17 01:35:01;;;;;;;;;22.33;17.33;;;;;17.86;55.23;101871.88;5059940;28;45528;-89
2021/08/17 01:37:27;;;;;;;;;19.67;17.67;;;;;17.89;55.29;101883.47;5059720;28;45446;-89
2021/08/17 01:40:04;;;;;;;;;20.00;18.33;;;;;17.91;55.35;101888.78;5059354;28;45868;-89
2021/08/17 01:44:58;;;;;;;;;17.00;13.67;;;;;17.89;55.39;101896.75;5124240;22;67543;-88
2021/08/17 01:47:23;;;;;;;;;15.33;14.33;;;;;17.77;55.36;101870.97;5101975;27;45467;-87
2021/08/17 01:49:49;;;;;;;;;17.00;15.67;;;;;17.78;55.51;101877.16;5119019;27;45402;-87
2021/08/17 01:52:14;;;;;;;;;20.00;15.33;;;;;17.75;55.62;101874.47;5119801;27;45426;-86
2021/08/17 01:54:40;;;;;;;;;20.67;14.33;;;;;17.77;55.52;101883.34;5118705;27;45908;-89
2021/08/17 01:57:05;;;;;;;;;18.00;16.00;;;;;17.85;55.57;101894.06;5102335;27;45542;-89
2021/08/17 01:59:33;;;;;;;;;21.00;18.00;;;;;17.82;55.96;101887.84;5120839;27;45468;-92
2021/08/17 02:01:58;;;;;;;;;19.00;17.67;;;;;17.78;55.86;101879.84;5120663;27;45334;-87
2021/08/17 02:04:25;;;;;;;;;23.00;17.33;;;;;17.78;56.00;101885.16;5122900;27;45234;-95
2021/08/17 02:06:50;;;;;;;;;21.00;19.00;;;;;17.75;56.00;101874.47;5123552;27;45207;-91
2021/08/17 02:09:16;;;;;;;;;16.67;15.00;;;;;17.73;55.99;101869.16;5123540;27;45370;-91
2021/08/17 02:11:41;;;;;;;;;19.00;15.33;;;;;17.75;55.77;101874.47;5121952;27;45454;-88
2021/08/17 02:14:06;;;;;;;;;14.67;13.67;;;;;17.71;55.97;101865.59;5122184;27;45310;-89
2021/08/17 02:16:32;;;;;;;;;13.00;10.00;;;;;17.68;56.09;101861.16;5122917;27;45309;-91
2021/08/17 02:18:57;;;;;;;;;13.67;13.00;;;;;17.69;55.81;101865.59;5123040;27;45409;-91
2021/08/17 02:21:23;;;;;;;;;17.00;14.00;;;;;17.63;55.95;101860.25;5123805;27;45346;-89
2021/08/17 02:23:48;;;;;;;;;23.00;18.00;;;;;17.62;56.05;101861.13;5122320;27;45317;-87
2021/08/17 02:26:13;;;;;;;;;19.67;17.00;;;;;17.57;56.07;101852.25;5122875;27;45361;-92
2021/08/17 02:28:39;;;;;;;;;14.67;14.00;;;;;17.62;55.69;101863.78;5122703;27;45260;-93
2021/08/17 02:31:04;;;;;;;;;20.67;15.67;;;;;17.53;55.98;101848.69;5123116;27;44787;-88
2021/08/17 02:33:30;;;;;;;;;17.67;13.33;;;;;17.59;56.04;101874.41;5123179;27;45438;-93
2021/08/17 02:35:55;;;;;;;;;23.00;17.67;;;;;17.56;56.25;101864.63;5124317;27;45321;-87
2021/08/17 02:38:20;;;;;;;;;19.25;16.00;;;;;17.46;56.09;101862.78;5127014;27;45353;-90
2021/08/17 02:40:46;;;;;;;;;16.33;15.00;;;;;17.44;56.13;101860.13;5131337;27;45312;-88
2021/08/17 02:43:11;;;;;;;;;20.00;16.67;;;;;17.40;56.24;101853.03;5104039;27;45345;-89
2021/08/17 02:45:37;;;;;;;;;19.33;15.33;;;;;17.46;56.52;101878.75;5087291;28;45290;-88
2021/08/17 02:48:03;;;;;;;;;18.00;16.33;;;;;17.45;56.25;101874.31;5084059;27;45456;-91
2021/08/17 02:50:30;;;;;;;;;21.00;15.00;;;;;17.43;56.54;101868.97;5079789;28;45945;-90
2021/08/17 02:52:55;;;;;;;;;17.75;16.75;;;;;17.42;56.50;101872.53;5082173;27;45230;-88
2021/08/17 02:55:22;;;;;;;;;19.00;14.00;;;;;17.33;56.47;101862.72;5081327;28;45231;-94
2021/08/17 02:57:54;;;;;;;;;19.00;18.33;;;;;17.38;56.61;101868.06;5080655;28;47168;-89
2021/08/17 03:00:20;;;;;;;;;22.33;17.33;;;;;17.33;56.52;101867.13;5082515;28;45311;-86
2021/08/17 03:02:46;;;;;;;;;16.67;13.00;;;;;17.35;56.56;101871.59;5085474;27;45258;-91
2021/08/17 03:05:12;;;;;;;;;17.67;16.00;;;;;17.32;56.84;101868.91;5089228;27;45256;-88
2021/08/17 03:07:54;;;;;;;;;17.67;15.00;;;;;17.34;56.66;101872.44;5088652;27;45620;-90
2021/08/17 03:10:21;;;;;;;;;22.33;17.33;;;;;17.35;56.71;101871.59;5089955;28;45257;-87
2021/08/17 03:12:47;;;;;;;;;18.00;15.67;;;;;17.34;56.59;101868.94;5091108;27;45397;-92
2021/08/17 03:15:13;;;;;;;;;18.33;15.33;;;;;17.22;56.72;101854.66;5096127;28;45441;-87
2021/08/17 03:17:39;;;;;;;;;14.67;12.00;;;;;17.29;56.89;101865.34;5101862;27;45309;-89
2021/08/17 03:20:09;;;;;;;;;17.33;13.00;;;;;17.27;56.76;101861.78;5094016;28;45421;-92
2021/08/17 03:22:36;;;;;;;;;20.67;13.67;;;;;17.29;57.13;101868.00;5085172;27;45322;-92
2021/08/17 03:25:05;;;;;;;;;15.00;14.00;;;;;17.28;56.80;101860.91;5084613;28;44845;-91
2021/08/17 03:27:30;;;;;;;;;16.00;14.00;;;;;17.27;56.90;101867.09;5083410;28;46460;-91
2021/08/17 03:29:57;;;;;;;;;13.67;12.33;;;;;17.26;56.94;101860.88;5083497;28;45486;-92
2021/08/17 03:32:22;;;;;;;;;17.00;14.00;;;;;17.23;56.99;101859.09;5084502;28;45349;-90
2021/08/17 03:34:48;;;;;;;;;19.67;15.00;;;;;17.22;57.03;101853.75;5085521;28;45584;-89
2021/08/17 03:37:13;;;;;;;;;14.00;14.00;;;;;17.19;57.14;101859.06;5085584;27;46312;-93
2021/08/17 03:39:39;;;;;;;;;16.00;15.00;;;;;17.19;57.24;101864.38;5083910;28;45414;-91
2021/08/17 03:42:04;;;;;;;;;16.33;12.67;;;;;17.16;57.10;101859.91;5083481;27;45347;-87
2021/08/17 03:44:30;;;;;;;;;16.33;14.67;;;;;17.17;57.08;101861.72;5116193;27;45284;-92
2021/08/17 03:46:55;;;;;;;;;19.00;14.00;;;;;17.18;57.24;101862.59;5125197;27;45538;-86
2021/08/17 03:49:20;;;;;;;;;17.00;13.00;;;;;17.16;57.13;101859.03;5124681;27;45317;-90
2021/08/17 03:51:47;;;;;;;;;16.00;13.00;;;;;17.11;57.22;101853.66;5126440;27;44990;-84
2021/08/17 03:54:13;;;;;;;;;18.67;15.33;;;;;17.07;57.33;101844.75;5126935;27;45322;-93
2021/08/17 03:56:38;;;;;;;;;13.67;12.33;;;;;17.11;57.52;101856.31;5108269;27;48107;-89
2021/08/17 03:59:04;;;;;;;;;14.00;12.67;;;;;17.15;57.13;101860.81;5125063;27;45326;-91
2021/08/17 04:01:29;;;;;;;;;10.00;9.67;;;;;17.14;56.98;101856.38;5124412;27;45544;-86
2021/08/17 04:03:55;;;;;;;;;15.33;15.00;;;;;17.13;57.01;101854.59;5124944;27;45558;-91
2021/08/17 04:06:20;;;;;;;;;18.33;14.33;;;;;17.10;57.52;101858.09;5124940;27;46459;-91
2021/08/17 04:08:48;;;;;;;;;19.67;14.67;;;;;17.11;57.28;101858.97;5124714;27;44772;-93
2021/08/17 04:11:13;;;;;;;;;19.25;15.50;;;;;17.06;57.47;101847.41;5125731;27;45437;-93
2021/08/17 04:13:40;;;;;;;;;18.67;16.33;;;;;17.09;57.22;101850.97;5123566;27;45180;-94
2021/08/17 04:16:06;;;;;;;;;16.00;13.33;;;;;17.11;57.39;101858.97;5125285;27;46957;-94
2021/08/17 04:18:31;;;;;;;;;17.33;15.00;;;;;17.11;57.35;101857.19;5124478;27;45312;-93
2021/08/17 04:20:57;;;;;;;;;13.67;13.33;;;;;17.10;57.70;101854.53;5124330;27;45264;-92
2021/08/17 04:23:22;;;;;;;;;17.33;15.00;;;;;17.06;57.48;101842.09;5124629;27;45330;-96
2021/08/17 04:25:48;;;;;;;;;14.67;12.67;;;;;17.08;57.63;101850.97;5123935;27;46349;-93
2021/08/17 04:28:13;;;;;;;;;15.67;13.00;;;;;17.08;57.43;101848.31;5106407;27;44842;-94
2021/08/17 04:30:39;;;;;;;;;16.33;15.00;;;;;17.00;57.88;101846.50;5124582;27;45745;-89
2021/08/17 04:33:04;;;;;;;;;19.33;15.33;;;;;17.01;57.66;101844.72;5126323;27;45287;-93
2021/08/17 04:35:30;;;;;;;;;15.00;13.00;;;;;16.99;57.67;101844.69;5124498;27;46230;-89
2021/08/17 04:37:55;;;;;;;;;16.00;15.00;;;;;16.94;57.59;101833.13;5125772;27;44706;-95
2021/08/17 04:40:21;;;;;;;;;16.00;12.33;;;;;16.94;57.62;101838.44;5126768;27;45389;-94
2021/08/17 04:42:46;;;;;;;;;14.00;14.00;;;;;16.98;57.72;101852.66;5124035;27;45371;-90
2021/08/17 04:45:12;;;;;;;;;19.67;14.67;;;;;16.93;57.64;101842.00;5124377;27;46269;-91
2021/08/17 04:47:50;;;;;;;;;14.33;12.33;;;;;16.88;57.74;101849.03;5124089;27;45342;-90
2021/08/17 04:50:15;;;;;;;;;14.33;13.00;;;;;16.87;58.15;101852.56;5132867;27;44733;-86
2021/08/17 04:52:42;;;;;;;;;13.67;12.00;;;;;16.85;58.05;101846.34;5134016;27;45547;-86
2021/08/17 04:55:08;;;;;;;;;17.67;14.67;;;;;16.72;58.16;101832.97;5115773;27;46331;-91
2021/08/17 04:57:50;;;;;;;;;14.00;13.33;;;;;16.79;57.99;101845.41;5134552;27;45344;-87
2021/08/17 05:00:17;;;;;;;;;17.50;15.50;;;;;16.71;57.95;101846.22;5128360;27;44664;-86
2021/08/17 05:02:42;;;;;;;;;17.33;11.33;;;;;16.72;58.32;101853.31;5119054;27;45235;-86
2021/08/17 05:05:08;;;;;;;;;13.67;13.33;;;;;16.70;58.30;101839.13;5135302;27;45325;-85
2021/08/17 05:07:37;;;;;;;;;14.33;13.00;;;;;16.70;58.71;101850.66;5123793;27;44798;-96
2021/08/17 05:10:09;;;;;;;;;18.00;14.00;;;;;16.70;58.33;101849.75;5124046;27;45362;-87
2021/08/17 05:12:35;;;;;;;;;18.33;13.67;;;;;16.77;58.45;101857.78;5131043;27;45420;-85
2021/08/17 05:15:04;;;;;;;;;19.00;15.33;;;;;16.65;58.47;101842.63;5137723;27;45310;-87
2021/08/17 05:17:29;;;;;;;;;18.33;13.67;;;;;16.76;58.36;101860.44;5138336;27;44686;-86
2021/08/17 05:19:55;;;;;;;;;16.67;14.00;;;;;16.73;58.64;101861.28;5132517;27;44806;-92
2021/08/17 05:22:20;;;;;;;;;14.33;12.33;;;;;16.71;58.38;101863.03;5106695;27;45359;-94
2021/08/17 05:24:46;;;;;;;;;13.00;11.33;;;;;16.71;58.42;101862.16;5126531;27;46408;-92
2021/08/17 05:27:11;;;;;;;;;17.33;16.00;;;;;16.76;58.57;101874.59;5126620;27;45313;-95
2021/08/17 05:29:37;;;;;;;;;14.00;13.00;;;;;16.73;58.83;101858.63;5120399;27;45374;-80
2021/08/17 05:32:04;;;;;;;;;15.00;12.33;;;;;16.81;58.30;101873.75;5117981;27;45378;-80
2021/08/17 05:34:30;;;;;;;;;13.33;13.33;;;;;16.85;58.78;101873.81;5118107;27;46059;-79
2021/08/17 05:36:55;;;;;;;;;18.00;16.67;;;;;16.88;58.39;101883.53;5117939;27;45451;-79
2021/08/17 05:39:21;;;;;;;;;17.00;14.00;;;;;16.86;58.71;101887.94;5107576;27;45437;-78
2021/08/17 05:41:46;;;;;;;;;15.00;12.00;;;;;16.87;58.52;101892.41;5097256;27;45378;-79
2021/08/17 05:44:12;;;;;;;;;16.67;13.00;;;;;16.85;58.54;101886.19;5096776;27;45839;-78
2021/08/17 05:46:37;;;;;;;;;16.67;13.00;;;;;16.85;58.97;101896.81;5096842;27;45245;-79
2021/08/17 05:49:02;;;;;;;;;15.67;12.67;;;;;16.81;58.67;101879.06;5097384;27;45295;-78
2021/08/17 05:51:28;;;;;;;;;15.00;12.67;;;;;16.83;58.66;101893.25;5097443;27;45393;-77
2021/08/17 05:53:53;;;;;;;;;17.33;14.67;;;;;16.84;58.94;101890.59;5097078;27;46155;-78
2021/08/17 05:56:18;;;;;;;;;12.00;11.00;;;;;16.84;59.03;101898.56;5097164;27;45253;-78
2021/08/17 05:58:44;;;;;;;;;14.67;12.67;;;;;16.85;58.82;101896.81;5097197;27;45277;-78
2021/08/17 06:01:09;;;;;;;;;19.67;12.00;;;;;16.87;59.00;101905.69;5097399;27;45400;-78
2021/08/17 06:03:34;;;;;;;;;18.67;14.33;;;;;16.88;59.06;101896.81;5097067;27;46147;-79
2021/08/17 06:06:00;;;;;;;;;15.67;13.33;;;;;16.86;58.88;101899.47;5097428;27;45252;-79
2021/08/17 06:08:26;;;;;;;;;13.00;11.67;;;;;16.79;59.26;101882.56;5097271;27;45329;-79
2021/08/17 06:10:52;;;;;;;;;14.00;11.33;;;;;16.73;59.02;101885.19;5097825;27;45329;-84
2021/08/17 06:13:17;;;;;;;;;15.33;13.00;;;;;16.85;58.93;101902.13;5098277;27;46495;-83
2021/08/17 06:15:43;;;;;;;;;13.67;11.33;;;;;16.82;58.90;101891.44;5098461;27;45443;-87
2021/08/17 06:18:09;;;;;;;;;14.00;11.33;;;;;16.84;59.16;101902.97;5098873;27;45514;-82
2021/08/17 06:20:35;;;;;;;;;17.00;12.33;;;;;16.85;59.13;101916.31;5099615;27;45285;-85
2021/08/17 06:23:02;;;;;;;;;15.00;13.67;;;;;16.86;59.00;101906.53;5098735;27;45390;-88
2021/08/17 06:25:29;;;;;;;;;15.00;13.67;;;;;16.87;59.36;101911.00;5080547;27;45352;-83
2021/08/17 06:27:55;;;;;;;;;14.33;10.00;;;;;16.85;59.38;101915.41;5099112;27;45273;-84
2021/08/17 06:30:20;;;;;;;;;12.00;10.00;;;;;16.81;59.36;101900.31;5080104;27;45247;-84
2021/08/17 06:32:45;;;;;;;;;14.67;11.67;;;;;16.90;59.75;101911.00;5099798;27;45311;-82
2021/08/17 06:35:11;;;;;;;;;13.67;11.00;;;;;16.92;59.45;101914.56;5100386;27;45351;-81
2021/08/17 06:37:36;;;;;;;;;12.00;11.67;;;;;16.91;59.68;101899.53;5100989;27;45536;-81
2021/08/17 06:40:02;;;;;;;;;15.00;12.67;;;;;16.91;59.68;101904.84;5102464;27;45404;-82
2021/08/17 06:42:28;;;;;;;;;13.00;11.67;;;;;16.93;59.48;101897.78;5105238;27;45949;-83
2021/08/17 06:44:53;;;;;;;;;16.00;11.33;;;;;16.99;59.74;101910.22;5107572;27;45287;-81
2021/08/17 06:47:19;;;;;;;;;10.67;10.33;;;;;16.99;59.62;101911.09;5111044;27;45309;-81
2021/08/17 06:49:44;;;;;;;;;14.67;9.67;;;;;16.97;59.68;101899.59;5107304;27;45388;-82
2021/08/17 06:52:10;;;;;;;;;12.00;10.00;;;;;17.11;59.73;101914.78;5091247;27;47491;-81
2021/08/17 06:54:35;;;;;;;;;14.67;9.67;;;;;17.10;59.92;101908.56;5108213;27;45362;-80
2021/08/17 06:57:00;;;;;;;;;13.00;10.00;;;;;17.17;59.83;101912.19;5107678;27;45325;-80
2021/08/17 06:59:26;;;;;;;;;11.33;11.33;;;;;17.20;60.21;101898.94;5087970;27;45410;-82
2021/08/17 07:01:51;;;;;;;;;11.00;10.33;;;;;17.28;60.08;101912.25;5102989;27;46305;-85
2021/08/17 07:04:16;;;;;;;;;9.00;9.00;;;;;17.31;60.13;101907.00;5103880;27;45379;-81
2021/08/17 07:06:42;;;;;;;;;10.00;10.00;;;;;17.38;59.75;101904.38;5104148;27;45803;-84
2021/08/17 07:09:07;;;;;;;;;15.00;11.00;;;;;17.40;59.46;101906.19;5103152;27;45381;-83
2021/08/17 07:11:33;;;;;;;;;11.00;8.00;;;;;17.46;59.52;101900.00;5102930;27;46026;-86
2021/08/17 07:13:58;;;;;;;;;13.00;10.00;;;;;17.51;59.48;101905.38;5101709;27;45259;-81
2021/08/17 07:16:24;;;;;;;;;12.33;10.00;;;;;17.54;59.39;101905.38;5101655;27;45591;-85
2021/08/17 07:18:49;;;;;;;;;13.67;8.33;;;;;17.59;59.53;101903.66;5100929;27;45293;-83
2021/08/17 07:21:14;;;;;;;;;8.33;8.33;;;;;17.63;59.81;101896.59;5099971;27;46311;-83
2021/08/17 07:23:40;;;;;;;;;8.00;8.00;;;;;17.72;59.50;101912.59;5100661;27;45314;-82
2021/08/17 07:26:05;;;;;;;;;16.00;12.00;;;;;17.74;59.68;101909.94;5100612;27;45268;-80
2021/08/17 07:28:31;;;;;;;;;14.00;9.33;;;;;17.76;59.30;101909.09;5100786;27;45165;-85
2021/08/17 07:30:56;;;;;;;;;12.00;9.67;;;;;17.84;59.40;101917.09;5100580;27;46117;-83
2021/08/17 07:33:22;;;;;;;;;15.67;9.67;;;;;17.87;59.31;101909.16;5100287;27;45580;-83
2021/08/17 07:35:48;;;;;;;;;14.00;11.00;;;;;17.89;59.32;101901.19;5101495;27;45391;-85
2021/08/17 07:38:13;;;;;;;;;11.00;9.00;;;;;17.99;59.64;101915.41;5101586;27;45449;-85
2021/08/17 07:40:39;;;;;;;;;10.67;10.67;;;;;18.10;59.40;101916.38;5064771;27;46111;-84
2021/08/17 07:43:05;;;;;;;;;11.00;9.00;;;;;18.19;58.84;101918.19;5099393;27;45315;-84
2021/08/17 07:45:30;;;;;;;;;13.67;10.33;;;;;18.26;58.72;101920.00;5100756;27;45373;-83
2021/08/17 07:47:56;;;;;;;;;8.00;8.00;;;;;18.37;59.06;101919.16;5098889;27;45456;-82
2021/08/17 07:50:21;;;;;;;;;14.67;12.00;;;;;18.36;58.64;101906.75;5099715;27;45345;-83
2021/08/17 07:52:47;;;;;;;;;11.33;8.67;;;;;18.44;58.51;101901.44;5099286;27;45433;-83
2021/08/17 07:55:14;;;;;;;;;13.00;9.67;;;;;18.49;58.32;101912.97;5100617;27;45486;-84
2021/08/17 07:57:40;;;;;;;;;14.00;10.33;;;;;18.50;58.29;101915.69;5100445;27;45215;-84
2021/08/17 08:00:09;;;;;;;;;13.00;11.67;;;;;18.51;58.08;101903.22;5100874;27;45326;-82
2021/08/17 08:02:35;;;;;;;;;16.33;11.00;;;;;18.48;58.28;101900.56;5103441;27;45429;-82
2021/08/17 08:05:00;;;;;;;;;13.67;12.00;;;;;18.52;58.46;101905.03;5102551;27;45381;-82
2021/08/17 08:07:25;;;;;;;;;14.33;12.00;;;;;18.60;57.83;101919.25;5102036;27;45319;-81
2021/08/17 08:09:51;;;;;;;;;13.00;10.67;;;;;18.63;57.96;101923.69;5101307;27;45866;-83
2021/08/17 08:12:16;;;;;;;;;17.00;12.00;;;;;18.62;58.00;101911.25;5101973;27;45468;-82
2021/08/17 08:14:43;;;;;;;;;12.00;10.33;;;;;18.66;57.86;101921.03;5101535;27;45386;-81
2021/08/17 08:17:09;;;;;;;;;14.33;11.33;;;;;18.68;57.47;101913.03;5103008;27;45322;-83
2021/08/17 08:19:36;;;;;;;;;13.00;10.33;;;;;18.73;57.68;101924.59;5101819;27;45689;-81
2021/08/17 08:22:02;;;;;;;;;13.33;12.00;;;;;18.76;57.80;101919.28;5099235;27;45460;-82
2021/08/17 08:24:27;;;;;;;;;13.67;9.00;;;;;18.87;57.86;101921.94;5100180;27;45398;-82
2021/08/17 08:26:52;;;;;;;;;9.33;9.33;;;;;18.95;58.21;101922.84;5100867;27;45219;-86
2021/08/17 08:29:19;;;;;;;;;13.33;8.67;;;;;19.03;57.95;101917.56;5099986;27;45414;-83
2021/08/17 08:31:45;;;;;;;;;11.00;10.67;;;;;19.07;57.42;101918.44;5099267;27;45379;-84
2021/08/17 08:34:10;;;;;;;;;16.33;9.33;;;;;19.12;57.97;101927.31;5099932;27;45244;-83
2021/08/17 08:36:35;;;;;;;;;10.33;9.00;;;;;19.22;57.47;101917.59;5100782;27;45537;-82
2021/08/17 08:39:01;;;;;;;;;11.00;9.33;;;;;19.30;57.52;101926.47;5099322;27;45354;-84
2021/08/17 08:41:26;;;;;;;;;10.33;10.00;;;;;19.27;57.40;101905.13;5099270;27;45412;-84
2021/08/17 08:43:52;;;;;;;;;7.33;6.00;;;;;19.45;57.24;101919.34;5098973;27;45323;-85
2021/08/17 08:46:20;;;;;;;;;7.67;7.67;;;;;19.58;56.99;101914.00;5100293;27;45425;-84
2021/08/17 08:48:48;;;;;;;;;11.00;10.67;;;;;19.76;57.21;101919.31;5100068;27;46532;-82
2021/08/17 08:51:15;;;;;;;;;11.00;8.00;;;;;19.96;56.40;101921.03;5099062;27;45386;-84
2021/08/17 08:53:41;;;;;;;;;11.33;9.00;;;;;20.05;56.08;101920.09;5098784;27;45428;-85
2021/08/17 08:56:07;;;;;;;;;9.67;9.33;;;;;20.16;56.00;101928.09;5099079;27;45470;-85
2021/08/17 08:58:33;;;;;;;;;10.33;10.33;;;;;20.17;56.06;101932.56;5098868;27;45487;-82
2021/08/17 09:00:58;;;;;;;;;14.00;8.67;;;;;20.20;56.03;101929.00;5098684;27;45511;-83
2021/08/17 09:03:41;;;;;;;;;9.67;8.00;;;;;20.19;55.52;101930.78;5099681;27;45413;-83
2021/08/17 09:06:21;;;;;;;;;14.00;6.33;;;;;20.16;55.46;101928.09;5099146;27;45279;-83
2021/08/17 09:08:48;;;;;;;;;8.00;6.33;;;;;20.13;55.30;101928.13;5099209;27;47014;-83
2021/08/17 09:11:15;;;;;;;;;9.67;7.00;;;;;20.07;55.72;101918.34;5099328;27;45451;-87
2021/08/17 09:13:41;;;;;;;;;9.33;7.00;;;;;20.06;55.68;101924.56;5100028;27;45385;-84
2021/08/17 09:16:30;;;;;;;;;11.00;8.67;;;;;20.09;55.43;101916.59;5101200;27;45511;-83
2021/08/17 09:18:57;;;;;;;;;9.00;8.00;;;;;20.28;55.95;101916.50;5101758;27;46238;-82
2021/08/17 09:21:33;;;;;;;;;9.00;8.00;;;;;20.39;55.25;101916.44;5101286;27;45386;-85
2021/08/17 09:24:13;;;;;;;;;8.33;8.33;;;;;20.42;55.03;101923.56;5102430;27;45434;-83
2021/08/17 09:26:45;;;;;;;;;12.33;8.00;;;;;20.40;54.81;101920.00;5102335;27;45477;-84
2021/08/17 09:29:10;;;;;;;;;6.00;5.67;;;;;20.35;54.40;101920.00;5100930;27;47341;-82
2021/08/17 09:31:39;;;;;;;;;7.33;6.67;;;;;20.31;54.96;101912.91;5100028;27;45404;-82
2021/08/17 09:34:07;;;;;;;;;9.67;8.33;;;;;20.27;54.49;101916.50;5100219;27;45215;-83
2021/08/17 09:36:40;;;;;;;;;8.33;7.00;;;;;20.21;54.44;101909.41;5102800;27;45330;-82
2021/08/17 09:39:06;;;;;;;;;10.00;7.67;;;;;20.20;54.38;101919.19;5100859;27;46176;-82
2021/08/17 09:41:33;;;;;;;;;8.33;6.00;;;;;20.18;54.29;101918.31;5099657;27;45409;-82
2021/08/17 09:44:01;;;;;;;;;8.67;7.00;;;;;20.16;54.25;101917.44;5101446;27;45348;-84
2021/08/17 09:46:33;;;;;;;;;8.67;7.00;;;;;20.12;53.67;101915.66;5081282;27;45437;-88
2021/08/17 09:49:20;;;;;;;;;7.33;5.00;;;;;20.10;53.71;101909.44;5098673;27;46205;-81
2021/08/17 09:51:46;;;;;;;;;9.67;7.67;;;;;20.07;53.81;101904.09;5098879;27;45394;-83
2021/08/17 09:54:14;;;;;;;;;8.33;7.00;;;;;20.00;53.89;101903.22;5098665;27;45406;-84
2021/08/17 09:56:40;;;;;;;;;7.67;6.00;;;;;20.05;53.30;101906.75;5099724;27;45316;-82
2021/08/17 09:59:05;;;;;;;;;9.00;7.00;;;;;20.06;53.46;101902.31;5080347;27;46630;-84
2021/08/17 10:01:32;;;;;;;;;9.00;6.67;;;;;20.06;52.95;101905.88;5098654;27;45463;-82
2021/08/17 10:04:01;;;;;;;;;6.00;6.00;;;;;20.09;52.60;101895.25;5098752;27;45308;-84
2021/08/17 10:06:27;;;;;;;;;5.67;5.67;;;;;20.16;52.92;101905.88;5099374;27;45423;-83
2021/08/17 10:08:57;;;;;;;;;5.00;5.00;;;;;20.29;52.97;101909.38;5099899;27;46140;-83
2021/08/17 10:11:23;;;;;;;;;5.67;5.33;;;;;20.48;52.96;101897.72;5101256;27;45257;-81
2021/08/17 10:13:50;;;;;;;;;9.00;6.67;;;;;20.60;52.62;101891.41;5102684;27;45407;-83
2021/08/17 10:16:36;;;;;;;;;7.00;5.67;;;;;20.67;52.66;101875.31;5102209;27;45288;-83
2021/08/17 10:19:02;;;;;;;;;10.00;8.33;;;;;20.82;51.61;101896.59;5098613;27;47298;-83
2021/08/17 10:21:28;;;;;;;;;7.33;7.00;;;;;20.90;51.63;101890.31;5101381;27;45820;-82
2021/08/17 10:23:53;;;;;;;;;6.67;6.00;;;;;20.96;52.08;101881.38;5102603;27;45906;-85
2021/08/17 10:26:33;;;;;;;;;8.33;7.00;;;;;21.05;51.61;101884.00;5102929;27;45260;-82
2021/08/17 10:28:59;;;;;;;;;8.00;7.00;;;;;21.10;51.46;101879.50;5102459;27;46344;-80
2021/08/17 10:31:31;;;;;;;;;7.33;6.33;;;;;21.12;51.28;101882.16;5102578;27;45350;-85
2021/08/17 10:33:59;;;;;;;;;9.00;7.33;;;;;21.17;51.09;101886.56;5103426;27;45272;-87
2021/08/17 10:36:36;;;;;;;;;7.00;7.00;;;;;21.22;51.08;101875.81;5103812;27;45385;-84
2021/08/17 10:39:25;;;;;;;;;8.33;8.00;;;;;21.22;50.94;101883.84;5102453;27;46410;-81
2021/08/17 10:41:53;;;;;;;;;10.33;7.33;;;;;21.29;50.82;101879.34;5102560;27;45314;-88
2021/08/17 10:44:33;;;;;;;;;7.33;6.67;;;;;21.30;50.31;101875.75;5102408;27;45370;-83
2021/08/17 10:47:06;;;;;;;;;11.33;8.33;;;;;21.28;50.16;101882.91;5103079;27;45683;-81
2021/08/17 10:49:35;;;;;;;;;10.00;8.33;;;;;21.19;49.75;101874.97;5103024;27;45629;-83
2021/08/17 10:52:05;;;;;;;;;7.00;7.00;;;;;21.10;50.05;101870.59;5102963;27;45318;-88
2021/08/17 10:54:32;;;;;;;;;8.67;8.67;;;;;21.01;50.15;101864.41;5102868;27;45365;-85
2021/08/17 10:57:21;;;;;;;;;10.00;8.33;;;;;20.97;50.47;101868.00;5107068;27;45324;-87
2021/08/17 10:59:49;;;;;;;;;11.67;8.33;;;;;20.92;50.24;101873.38;5106825;27;46188;-83
2021/08/17 11:02:16;;;;;;;;;7.67;6.33;;;;;20.88;50.03;101868.03;5106552;27;45437;-84
2021/08/17 11:04:46;;;;;;;;;7.00;7.00;;;;;20.86;50.33;101873.41;5103191;27;45424;-88
2021/08/17 11:07:26;;;;;;;;;8.33;8.33;;;;;20.81;50.14;101864.56;5104542;27;45278;-86
2021/08/17 11:09:52;;;;;;;;;8.33;7.33;;;;;20.80;50.21;101866.34;5102902;27;46426;-88
2021/08/17 11:12:18;;;;;;;;;10.00;8.33;;;;;20.77;50.68;101855.66;5102675;27;45373;-88